createdAt,value
2022-12-25T00:04:11.741Z,4.517711381688963
2022-12-25T00:10:50.947Z,4.599698866011706
2022-12-25T00:17:19.419Z,4.662370009406354
2022-12-25T00:26:53.880Z,4.675303746864548
2022-12-25T00:33:13.699Z,4.7209676787207355
2022-12-25T00:39:35.141Z,4.788383805392977
2022-12-25T00:49:36.911Z,4.820354306020067
2022-12-25T00:55:59.106Z,4.771560801630434
2022-12-25T01:02:18.949Z,4.763630722198997
2022-12-25T01:11:19.953Z,4.756751672240802
2022-12-25T01:18:32.400Z,4.734540917642141
2022-12-25T01:30:12.979Z,4.643701661789297
2022-12-25T01:41:53.732Z,4.5937565321906355
2022-12-25T01:48:12.632Z,4.487864496237458
2022-12-25T01:56:03.936Z,4.390440792224081
2022-12-25T02:02:23.433Z,4.245306621028428
2022-12-25T02:13:37.159Z,4.199050872700669
2022-12-25T02:19:56.423Z,4.198731448578595
2022-12-25T02:26:15.952Z,4.194190269648829
2022-12-25T02:37:49.140Z,4.20504873014214
2022-12-25T02:49:42.014Z,4.1522529525501675
2022-12-25T03:00:39.903Z,4.252540368938127
2022-12-25T03:06:59.151Z,4.221095709657191
2022-12-25T03:13:19.097Z,4.270317072533445
2022-12-25T03:26:14.334Z,4.155914898620402
2022-12-25T03:32:49.446Z,4.087885399247492
2022-12-25T03:39:08.744Z,3.970241299122074
2022-12-25T03:45:28.218Z,4.002250992892977
2022-12-25T03:51:47.283Z,3.970720108695653
2022-12-25T03:58:06.117Z,4.069007368311037
2022-12-25T04:04:28.016Z,3.9571795307274242
2022-12-25T04:26:26.858Z,3.953722695443144
2022-12-25T04:33:13.123Z,3.830863947533445
2022-12-25T04:39:32.446Z,3.672756192516722
2022-12-25T04:45:51.322Z,3.7535855194397993
2022-12-25T04:52:10.264Z,3.7306425062709034
2022-12-25T05:02:30.944Z,3.6540382002508363
2022-12-25T05:08:50.109Z,3.633014344690636
2022-12-25T05:15:09.237Z,3.6363862614966553
2022-12-25T05:21:28.126Z,3.6611837635869566
2022-12-25T05:33:14.406Z,3.828004154473244
2022-12-25T05:41:34.714Z,3.911066184155518
2022-12-25T05:47:54.161Z,3.959367814590301
2022-12-25T05:54:12.957Z,3.990284019648829
2022-12-25T06:00:31.938Z,4.009932849080268
2022-12-25T06:10:26.320Z,4.057595631270902
2022-12-25T06:16:45.195Z,4.169454170150502
2022-12-25T06:30:52.732Z,4.282675977215719
2022-12-25T06:41:48.739Z,4.36273777173913
2022-12-25T06:48:08.252Z,4.34930366847826
2022-12-25T06:54:27.455Z,4.387019883988295
2022-12-25T07:07:16.644Z,4.483452654682274
2022-12-25T07:19:41.070Z,4.668274456521739
2022-12-25T07:26:04.352Z,4.757955554974916
2022-12-25T07:32:24.461Z,4.792655204849498
2022-12-25T07:43:53.118Z,4.891094664506689
2022-12-25T07:55:33.988Z,5.026336486204014
2022-12-25T08:01:59.654Z,5.032881741220736
2022-12-25T08:10:32.264Z,5.088654238085284
2022-12-25T08:16:54.830Z,5.059283549331104
2022-12-25T08:25:40.974Z,5.098741246864549
2022-12-25T08:32:02.705Z,5.181410038670569
2022-12-25T08:38:24.840Z,5.235140572742474
2022-12-25T08:49:43.498Z,5.357290577968228
2022-12-25T09:05:48.084Z,5.524998693561873
2022-12-25T09:12:09.766Z,5.583990253971572
2022-12-25T09:18:31.638Z,5.636788644439799
2022-12-25T09:34:01.473Z,5.801677466555184
2022-12-25T09:40:22.826Z,5.8251097408026755
2022-12-25T09:46:44.218Z,5.791495087792642
2022-12-25T09:53:47.310Z,5.7515938545150505
2022-12-25T10:03:42.494Z,5.803545019857859
2022-12-25T10:10:04.143Z,5.862249163879599
2022-12-25T10:22:07.613Z,5.919330711747492
2022-12-25T10:28:29.851Z,5.94358604201505
2022-12-25T10:34:52.654Z,5.952915969899665
2022-12-25T10:41:14.131Z,5.996669235994983
2022-12-25T10:47:35.640Z,6.072831965928093
2022-12-25T10:53:57.473Z,6.076192778010033
2022-12-25T11:00:19.840Z,6.114776468436454
2022-12-25T11:06:41.169Z,6.149413409280936
2022-12-25T11:13:04.032Z,6.171775057483277
2022-12-25T11:21:13.532Z,6.22952354201505
2022-12-25T11:27:35.599Z,6.2526703595317725
2022-12-25T11:33:57.722Z,6.319213785535117
2022-12-25T11:40:19.137Z,6.400553929765886
2022-12-25T11:48:57.337Z,6.47305797972408
2022-12-25T12:00:50.585Z,6.519896399456522
2022-12-25T12:07:55.284Z,6.548268969481605
2022-12-25T12:14:17.132Z,6.5595056438127095
2022-12-25T12:20:39.913Z,6.569247099707358
2022-12-25T12:27:01.613Z,6.563146686872909
2022-12-25T12:33:23.211Z,6.541667537625418
2022-12-25T12:44:29.373Z,6.574318692516723
2022-12-25T12:50:50.572Z,6.5673632159280935
2022-12-25T12:57:12.184Z,6.559682666178929
2022-12-25T13:03:33.851Z,6.550559155518394
2022-12-25T13:14:56.699Z,6.568979279891304
2022-12-25T13:21:19.398Z,6.564447246028429
2022-12-25T13:27:40.832Z,6.593828386287624
2022-12-25T13:34:02.383Z,6.617050977215718
2022-12-25T13:40:24.287Z,6.62872204222408
2022-12-25T13:52:43.957Z,6.591070495401338
2022-12-25T13:59:05.133Z,6.588678407190636
2022-12-25T14:05:27.297Z,6.596909620610368
2022-12-25T14:16:27.314Z,6.628763848244147
2022-12-25T14:23:25.635Z,6.660840823578595
2022-12-25T14:29:45.580Z,6.665451896948161
2022-12-25T14:46:10.992Z,6.707136418269231
2022-12-25T14:52:29.995Z,6.698378710284282
2022-12-25T15:03:45.545Z,6.726782634824415
2022-12-25T15:10:56.992Z,6.69706835284281
2022-12-25T15:17:19.100Z,6.709052963001672
2022-12-25T15:23:39.411Z,6.702684730351171
2022-12-25T15:34:16.227Z,6.710139919523412
2022-12-25T15:43:48.636Z,6.645294209866221
2022-12-25T15:50:08.693Z,6.657163853469899
2022-12-25T16:07:43.370Z,6.726576217600334
2022-12-25T16:14:03.164Z,6.696087217809365
2022-12-25T16:20:22.535Z,6.6705705215301
2022-12-25T16:30:23.200Z,6.715967286789297
2022-12-25T16:43:00.736Z,6.799684495192308
2022-12-25T16:49:21.096Z,6.8458017610785955
2022-12-25T16:55:40.309Z,6.846831887541805
2022-12-25T17:07:41.069Z,6.860830372073579
2022-12-25T17:14:00.264Z,6.919097512541804
2022-12-25T17:20:20.389Z,6.947903166806021
2022-12-25T17:26:39.444Z,6.98192608173077
2022-12-25T17:32:58.555Z,7.013638560827759
2022-12-25T17:41:49.122Z,7.0096062395484955
2022-12-25T17:48:09.111Z,7.077231396321071
2022-12-25T17:54:28.527Z,7.076622596153845
2022-12-25T18:05:19.436Z,7.059081051421405
2022-12-25T18:16:26.116Z,7.104302100752507
2022-12-25T18:29:03.062Z,7.166214856814381
2022-12-25T18:39:02.261Z,7.158345526755853
2022-12-25T18:59:28.188Z,7.214569397993309
2022-12-25T19:15:06.827Z,7.134572925376254
2022-12-25T19:21:26.922Z,7.18919902278428
2022-12-25T19:32:41.557Z,7.216617239757525
2022-12-25T19:39:00.351Z,7.197250600961538
2022-12-25T19:45:19.726Z,7.18314237562709
2022-12-25T19:51:39.420Z,7.181920855978261
2022-12-25T19:57:58.576Z,7.1624183476170575
2022-12-25T20:04:47.747Z,7.150712008779266
2022-12-25T20:11:07.118Z,7.158312865802676
2022-12-25T20:17:26.495Z,7.153077968227424
2022-12-25T20:33:02.939Z,7.183740724289297
2022-12-25T20:45:25.126Z,7.198210832984948
2022-12-25T20:51:44.482Z,7.219454823369564
2022-12-25T20:58:03.843Z,7.173088027801003
2022-12-25T21:04:25.608Z,7.14875627090301
2022-12-25T21:10:46.753Z,7.190158601588629
2022-12-25T21:22:55.027Z,7.162207357859532
2022-12-25T21:34:12.370Z,7.155729384406355
2022-12-25T21:45:37.583Z,7.181536763168897
2022-12-25T21:51:56.479Z,7.159463837792642
2022-12-25T22:00:18.656Z,7.177282347408026
2022-12-25T22:06:38.815Z,7.151773489757525
2022-12-25T22:13:04.682Z,7.13965954222408
2022-12-25T22:23:28.837Z,7.134685279055184
2022-12-25T22:29:50.796Z,7.1499287991220735
2022-12-25T22:36:11.291Z,7.177348975752508
2022-12-25T22:42:30.190Z,7.1706469481605355
2022-12-25T22:48:49.242Z,7.178954588210702
2022-12-25T22:55:09.401Z,7.181216032608695
2022-12-25T23:01:33.151Z,7.174973871237458
2022-12-25T23:12:25.165Z,7.151926996237458
2022-12-25T23:27:32.056Z,7.169989809782608
2022-12-25T23:33:51.103Z,7.159169889214045
2022-12-25T23:40:09.989Z,7.092857702759197
2022-12-25T23:46:29.285Z,7.06220147888796
2022-12-25T23:52:48.469Z,7.056026599080267
2022-12-25T23:59:07.556Z,7.008170464046823
